createdAt,value
2023-02-16T00:00:24.346Z,-2.12
2023-02-16T00:05:50.172Z,-2.17
2023-02-16T00:11:30.058Z,-2.23
2023-02-16T00:16:52.676Z,-2.31
2023-02-16T00:22:19.589Z,-2.53
2023-02-16T00:27:42.135Z,-2.57
2023-02-16T00:33:04.360Z,-2.49
2023-02-16T00:38:28.330Z,-2.34
2023-02-16T00:43:50.847Z,-2.27
2023-02-16T00:49:15.329Z,-2.31
2023-02-16T00:54:37.601Z,-2.37
2023-02-16T01:00:02.383Z,-2.32
2023-02-16T01:05:25.342Z,-2.31
2023-02-16T01:11:07.282Z,-2.24
2023-02-16T01:16:44.892Z,-2.24
2023-02-16T01:22:07.302Z,-2.20
2023-02-16T01:27:31.272Z,-2.15
2023-02-16T01:32:54.026Z,-2.14
2023-02-16T01:38:18.794Z,-2.10
2023-02-16T01:43:54.134Z,-2.02
2023-02-16T01:49:22.978Z,-2.00
2023-02-16T01:55:01.518Z,-2.02
2023-02-16T02:00:36.948Z,-2.03
2023-02-16T02:06:01.949Z,-2.00
2023-02-16T02:11:40.224Z,-2.03
2023-02-16T02:17:21.676Z,-2.07
2023-02-16T02:23:34.313Z,-2.01
2023-02-16T02:29:16.483Z,-2.04
2023-02-16T02:35:20.334Z,-2.09
2023-02-16T02:40:47.526Z,-2.07
2023-02-16T02:46:26.317Z,-2.09
2023-02-16T02:51:49.159Z,-2.16
2023-02-16T02:57:55.449Z,-2.23
2023-02-16T03:03:40.639Z,-2.25
2023-02-16T03:09:21.334Z,-2.33
2023-02-16T03:15:00.682Z,-2.34
2023-02-16T03:20:44.098Z,-2.31
2023-02-16T03:26:25.056Z,-2.31
2023-02-16T03:31:50.729Z,-2.31
2023-02-16T03:37:15.456Z,-2.45
2023-02-16T03:42:38.990Z,-2.47
2023-02-16T03:48:01.935Z,-2.42
2023-02-16T03:53:24.161Z,-2.46
2023-02-16T03:58:46.655Z,-2.43
2023-02-16T04:04:09.538Z,-2.47
2023-02-16T04:09:32.402Z,-2.49
2023-02-16T04:14:54.809Z,-2.52
2023-02-16T04:20:19.096Z,-2.55
2023-02-16T04:25:41.546Z,-2.56
2023-02-16T04:31:04.448Z,-2.65
2023-02-16T04:36:27.439Z,-2.65
2023-02-16T04:41:49.763Z,-2.66
2023-02-16T04:47:12.219Z,-2.66
2023-02-16T04:52:35.078Z,-2.72
2023-02-16T04:57:58.073Z,-2.71
2023-02-16T05:03:21.442Z,-2.70
2023-02-16T05:08:44.491Z,-2.67
2023-02-16T05:14:26.544Z,-2.67
2023-02-16T05:19:50.457Z,-2.71
2023-02-16T05:25:13.807Z,-2.68
2023-02-16T05:30:36.138Z,-2.65
2023-02-16T05:35:58.488Z,-2.68
2023-02-16T05:41:24.301Z,-2.87
2023-02-16T05:46:49.172Z,-2.92
2023-02-16T05:52:11.969Z,-2.98
2023-02-16T05:57:35.858Z,-3.01
2023-02-16T06:02:58.362Z,-3.00
2023-02-16T06:08:20.995Z,-3.03
2023-02-16T06:13:43.683Z,-3.03
2023-02-16T06:19:06.473Z,-3.11
2023-02-16T06:24:29.801Z,-3.15
2023-02-16T06:29:52.119Z,-3.11
2023-02-16T06:35:14.771Z,-3.17
2023-02-16T06:40:37.050Z,-3.14
2023-02-16T06:46:00.370Z,-3.14
2023-02-16T06:51:25.870Z,-3.09
2023-02-16T06:56:48.688Z,-3.02
2023-02-16T07:02:11.264Z,-2.95
2023-02-16T07:07:33.529Z,-2.86
2023-02-16T07:12:56.270Z,-2.80
2023-02-16T07:18:18.936Z,-2.73
2023-02-16T07:23:41.354Z,-2.65
2023-02-16T07:29:03.660Z,-2.57
2023-02-16T07:34:27.055Z,-2.50
2023-02-16T07:39:50.579Z,-2.39
2023-02-16T07:45:13.601Z,-2.32
2023-02-16T07:50:36.078Z,-2.20
2023-02-16T07:55:59.198Z,-2.08
2023-02-16T08:01:27.972Z,-1.95
2023-02-16T08:06:51.463Z,-1.78
2023-02-16T08:12:18.364Z,-1.64
2023-02-16T08:17:41.035Z,-1.52
2023-02-16T08:23:05.735Z,-1.39
2023-02-16T08:28:29.269Z,-1.26
2023-02-16T08:33:53.468Z,-1.09
2023-02-16T08:39:19.278Z,-0.95
2023-02-16T08:44:42.694Z,-0.75
2023-02-16T08:50:05.585Z,-0.64
2023-02-16T08:55:27.804Z,-0.48
2023-02-16T09:00:50.178Z,-0.32
2023-02-16T09:06:14.376Z,-0.11
2023-02-16T09:11:37.711Z,0.08
2023-02-16T09:17:00.034Z,0.20
2023-02-16T09:22:22.709Z,0.41
2023-02-16T09:27:46.121Z,0.52
2023-02-16T09:33:08.342Z,0.73
2023-02-16T09:38:30.871Z,0.87
2023-02-16T09:44:10.472Z,0.99
2023-02-16T09:49:50.564Z,1.11
2023-02-16T09:55:09.420Z,1.26
2023-02-16T10:00:42.259Z,1.48
2023-02-16T10:06:34.312Z,1.95
2023-02-16T10:12:09.238Z,2.27
2023-02-16T10:17:53.415Z,2.62
2023-02-16T10:23:36.372Z,2.90
2023-02-16T10:29:02.721Z,3.45
2023-02-16T10:34:42.155Z,3.95
2023-02-16T10:40:34.977Z,4.26
2023-02-16T10:46:09.675Z,4.30
2023-02-16T10:51:36.991Z,4.54
2023-02-16T10:57:16.308Z,4.71
2023-02-16T11:02:45.443Z,4.86
2023-02-16T11:08:14.525Z,5.15
2023-02-16T11:13:42.952Z,5.32
2023-02-16T11:19:21.638Z,6.30
2023-02-16T11:24:47.112Z,5.83
2023-02-16T11:30:30.852Z,6.00
2023-02-16T11:35:56.295Z,6.44
2023-02-16T11:41:20.062Z,6.89
2023-02-16T11:46:47.008Z,6.69
2023-02-16T11:52:26.663Z,7.15
2023-02-16T11:57:51.096Z,7.15
2023-02-16T12:03:54.967Z,6.85
2023-02-16T12:09:47.093Z,6.98
2023-02-16T12:21:10.824Z,8.42
2023-02-16T12:26:53.035Z,8.40
2023-02-16T12:32:37.749Z,7.45
2023-02-16T12:38:42.668Z,7.30
2023-02-16T12:44:15.697Z,7.05
2023-02-16T12:49:57.771Z,7.45
2023-02-16T12:55:43.564Z,7.82
2023-02-16T13:01:14.151Z,7.99
2023-02-16T13:06:56.640Z,7.97
2023-02-16T13:12:55.635Z,7.91
2023-02-16T13:18:38.572Z,7.69
2023-02-16T13:24:17.141Z,6.83
2023-02-16T13:29:51.799Z,7.33
2023-02-16T13:36:01.142Z,7.44
2023-02-16T13:41:48.319Z,8.49
2023-02-16T13:47:13.889Z,8.73
2023-02-16T13:52:57.772Z,8.07
2023-02-16T13:58:30.999Z,8.56
2023-02-16T14:03:54.838Z,8.24
2023-02-16T14:09:36.852Z,8.25
2023-02-16T14:15:12.440Z,8.01
2023-02-16T14:20:37.992Z,8.39
2023-02-16T14:26:09.180Z,8.28
2023-02-16T14:31:34.792Z,7.85
2023-02-16T14:37:18.630Z,7.95
2023-02-16T14:42:48.408Z,7.94
2023-02-16T14:48:42.910Z,8.04
2023-02-16T14:54:38.190Z,8.18
2023-02-16T15:00:27.131Z,7.91
2023-02-16T15:05:52.793Z,7.76
2023-02-16T15:11:20.878Z,7.57
2023-02-16T15:16:44.896Z,7.43
2023-02-16T15:22:30.374Z,7.15
2023-02-16T15:28:04.097Z,6.89
2023-02-16T15:33:40.236Z,6.49
2023-02-16T15:39:10.358Z,6.27
2023-02-16T15:44:39.576Z,5.92
2023-02-16T15:50:03.703Z,5.78
2023-02-16T15:55:27.274Z,5.56
2023-02-16T16:00:50.547Z,5.33
2023-02-16T16:06:23.536Z,5.01
2023-02-16T16:11:47.317Z,4.89
2023-02-16T16:17:10.156Z,4.60
2023-02-16T16:22:52.304Z,4.33
2023-02-16T16:28:18.088Z,4.17
2023-02-16T16:33:59.503Z,4.03
2023-02-16T16:39:46.520Z,3.88
2023-02-16T16:45:19.906Z,3.84
2023-02-16T16:50:51.183Z,3.81
2023-02-16T16:56:17.900Z,3.74
2023-02-16T17:01:42.015Z,3.65
2023-02-16T17:07:04.613Z,3.51
2023-02-16T17:12:28.936Z,3.42
2023-02-16T17:17:51.242Z,3.38
2023-02-16T17:23:13.829Z,3.25
2023-02-16T17:28:38.385Z,3.22
2023-02-16T17:34:11.792Z,3.11
2023-02-16T17:39:34.766Z,2.86
2023-02-16T17:44:57.328Z,3.07
2023-02-16T17:50:21.429Z,3.08
2023-02-16T17:55:44.227Z,3.03
2023-02-16T18:01:07.703Z,2.97
2023-02-16T18:06:36.204Z,2.87
2023-02-16T18:11:59.118Z,2.84
2023-02-16T18:17:24.235Z,2.68
2023-02-16T18:22:46.647Z,2.59
2023-02-16T18:28:09.090Z,2.63
2023-02-16T18:33:33.844Z,2.61
2023-02-16T18:38:56.925Z,2.62
2023-02-16T18:44:19.287Z,2.56
2023-02-16T18:49:42.422Z,2.54
2023-02-16T18:55:04.665Z,2.58
2023-02-16T19:00:28.238Z,2.58
2023-02-16T19:05:51.263Z,2.63
2023-02-16T19:11:13.456Z,2.67
2023-02-16T19:16:36.054Z,2.76
2023-02-16T19:21:58.556Z,2.74
2023-02-16T19:27:21.218Z,2.74
2023-02-16T19:32:43.548Z,2.73
2023-02-16T19:38:05.762Z,2.76
2023-02-16T19:43:28.047Z,2.77
2023-02-16T19:48:51.127Z,2.76
2023-02-16T19:54:13.327Z,2.82
2023-02-16T19:59:35.530Z,2.91
2023-02-16T20:04:59.481Z,2.93
2023-02-16T20:10:22.063Z,2.94
2023-02-16T20:15:45.055Z,2.98
2023-02-16T20:21:14.876Z,3.02
2023-02-16T20:26:42.250Z,3.00
2023-02-16T20:32:11.051Z,3.04
2023-02-16T20:37:33.667Z,3.02
2023-02-16T20:42:58.752Z,3.04
2023-02-16T20:48:23.498Z,3.05
2023-02-16T20:53:47.164Z,3.00
2023-02-16T20:59:12.222Z,3.02
2023-02-16T21:04:36.276Z,3.06
2023-02-16T21:09:59.288Z,3.06
2023-02-16T21:15:22.942Z,3.09
2023-02-16T21:20:45.301Z,3.12
2023-02-16T21:26:11.847Z,3.16
2023-02-16T21:31:36.920Z,3.22
2023-02-16T21:36:59.319Z,3.24
2023-02-16T21:42:21.548Z,3.21
2023-02-16T21:48:01.459Z,3.17
2023-02-16T21:53:24.356Z,3.17
2023-02-16T21:58:48.942Z,3.19
2023-02-16T22:04:12.223Z,3.17
2023-02-16T22:09:36.460Z,3.12
2023-02-16T22:14:58.684Z,3.07
2023-02-16T22:20:21.049Z,3.06
2023-02-16T22:25:45.165Z,3.03
2023-02-16T22:31:14.491Z,3.03
2023-02-16T22:36:37.924Z,3.02
2023-02-16T22:42:03.928Z,3.00
2023-02-16T22:47:26.178Z,3.02
2023-02-16T22:52:48.420Z,3.02
2023-02-16T22:58:10.656Z,3.02
2023-02-16T23:03:33.151Z,2.96
2023-02-16T23:08:59.578Z,2.94
2023-02-16T23:14:23.052Z,2.99
2023-02-16T23:19:45.784Z,2.98
2023-02-16T23:25:27.245Z,2.90
2023-02-16T23:30:52.189Z,2.78
2023-02-16T23:36:14.669Z,2.80
2023-02-16T23:41:37.443Z,2.79
2023-02-16T23:47:00.310Z,2.81
2023-02-16T23:52:22.900Z,2.90
2023-02-16T23:57:45.324Z,2.97
